Skellig — FAB2799 — position and weather

sailwx.info

Track history (hours):
 
Tides and Currents Weather Stations Pressure Air Temp Water Temp Dewpoint Dewpoint Depression Visibility Wind Speed Wind Dir Waves Ship Positions

Skellig

Last reported at 2017-Sep-19 03:58 UTC. Time now 2017-Sep-24 05:04 UTC.
Position N 48°06' W 004°20'.

Length 15 m.

Type: Sailing vessel. MMSI: 227186680.

Date/timePositionNaut miles runAvg speedWind from/ knotsBaromVisibWave heightAir tempDewpointWater temp
2017-Sep-19 03:58N 48°06' W 004°20'0 0.0
2017-Sep-17 20:49N 48°06' W 004°20'0 0.0
2017-Sep-17 13:43N 48°06' W 004°20'3 4.1
2017-Sep-17 12:58N 48°08' W 004°23'4 4.4
2017-Sep-17 11:59N 48°09' W 004°29'4 4.2
2017-Sep-17 11:01N 48°11' W 004°34'0 5.4
2017-Sep-17 11:00N 48°11' W 004°34'2 4.5
2017-Sep-17 10:27N 48°14' W 004°36'2 4.8
2017-Sep-17 10:01N 48°15' W 004°38'2 4.4
2017-Sep-17 09:30N 48°18' W 004°38'2 3.3
2017-Sep-17 09:00N 48°19' W 004°36'2 4.8
2017-Sep-17 08:30N 48°20' W 004°33'2 3.6
2017-Sep-17 08:01N 48°21' W 004°31'2 4.2
2017-Sep-17 07:30N 48°20' W 004°28'2 4.1
2017-Sep-17 07:00N 48°19' W 004°25'2 0.2
2017-Sep-16 16:48N 48°20' W 004°22'1 2.0
2017-Sep-16 16:24N 48°19' W 004°23'1 2.5
2017-Sep-16 16:00N 48°19' W 004°24'2 4.1
2017-Sep-16 15:31N 48°19' W 004°27'2 3.9
2017-Sep-16 15:00N 48°20' W 004°30'2 4.6
2017-Sep-16 14:30N 48°21' W 004°33'3 5.5
2017-Sep-16 14:00N 48°19' W 004°36'3 5.0
2017-Sep-16 13:30N 48°17' W 004°38'2 4.7
2017-Sep-16 12:59N 48°14' W 004°38'2 4.5
2017-Sep-16 12:30N 48°12' W 004°38'4 4.6
2017-Sep-16 11:38N 48°08' W 004°40'1 5.1
2017-Sep-16 11:28N 48°08' W 004°38'3 5.2
2017-Sep-16 10:58N 48°09' W 004°35'6 5.2
2017-Sep-16 09:53N 48°09' W 004°26'4 4.2
2017-Sep-16 08:58N 48°09' W 004°20'2 1.9
2017-Sep-16 07:58N 48°08' W 004°21'2 0.7
2017-Sep-16 05:38N 48°06' W 004°20'0 0.0
2017-Sep-16 04:53N 48°06' W 004°20'0 0.0
2017-Sep-15 23:53N 48°06' W 004°20'0 0.0
2017-Sep-15 20:53N 48°06' W 004°20'0 0.0
2017-Sep-15 19:53N 48°06' W 004°20'0 0.0
2017-Sep-15 18:53N 48°06' W 004°20'0 0.0
2017-Sep-15 17:38N 48°06' W 004°20'0 0.0
2017-Sep-15 11:53N 48°06' W 004°20'  
Track history (hours):
 
Tides and Currents Weather Stations Pressure Air Temp Water Temp Dewpoint Dewpoint Depression Visibility Wind Speed Wind Dir Waves Ship Positions

Skellig

Last reported at 2017-Sep-19 03:58 UTC. Time now 2017-Sep-24 05:04 UTC.
Position N 48°06' W 004°20'.

Length 15 m.

Type: Sailing vessel. MMSI: 227186680.

Date/timePositionNaut miles runAvg speedWind from/ knotsBaromVisibWave heightAir tempDewpointWater temp
2017-Sep-19 03:58N 48°06' W 004°20'0 0.0
2017-Sep-17 20:49N 48°06' W 004°20'0 0.0
2017-Sep-17 13:43N 48°06' W 004°20'3 4.1
2017-Sep-17 12:58N 48°08' W 004°23'4 4.4
2017-Sep-17 11:59N 48°09' W 004°29'4 4.2
2017-Sep-17 11:01N 48°11' W 004°34'0 5.4
2017-Sep-17 11:00N 48°11' W 004°34'2 4.5
2017-Sep-17 10:27N 48°14' W 004°36'2 4.8
2017-Sep-17 10:01N 48°15' W 004°38'2 4.4
2017-Sep-17 09:30N 48°18' W 004°38'2 3.3
2017-Sep-17 09:00N 48°19' W 004°36'2 4.8
2017-Sep-17 08:30N 48°20' W 004°33'2 3.6
2017-Sep-17 08:01N 48°21' W 004°31'2 4.2
2017-Sep-17 07:30N 48°20' W 004°28'2 4.1
2017-Sep-17 07:00N 48°19' W 004°25'2 0.2
2017-Sep-16 16:48N 48°20' W 004°22'1 2.0
2017-Sep-16 16:24N 48°19' W 004°23'1 2.5
2017-Sep-16 16:00N 48°19' W 004°24'2 4.1
2017-Sep-16 15:31N 48°19' W 004°27'2 3.9
2017-Sep-16 15:00N 48°20' W 004°30'2 4.6
2017-Sep-16 14:30N 48°21' W 004°33'3 5.5
2017-Sep-16 14:00N 48°19' W 004°36'3 5.0
2017-Sep-16 13:30N 48°17' W 004°38'2 4.7
2017-Sep-16 12:59N 48°14' W 004°38'2 4.5
2017-Sep-16 12:30N 48°12' W 004°38'4 4.6
2017-Sep-16 11:38N 48°08' W 004°40'1 5.1
2017-Sep-16 11:28N 48°08' W 004°38'3 5.2
2017-Sep-16 10:58N 48°09' W 004°35'6 5.2
2017-Sep-16 09:53N 48°09' W 004°26'4 4.2
2017-Sep-16 08:58N 48°09' W 004°20'2 1.9
2017-Sep-16 07:58N 48°08' W 004°21'2 0.7
2017-Sep-16 05:38N 48°06' W 004°20'0 0.0
2017-Sep-16 04:53N 48°06' W 004°20'0 0.0
2017-Sep-15 23:53N 48°06' W 004°20'0 0.0
2017-Sep-15 20:53N 48°06' W 004°20'0 0.0
2017-Sep-15 19:53N 48°06' W 004°20'0 0.0
2017-Sep-15 18:53N 48°06' W 004°20'0 0.0
2017-Sep-15 17:38N 48°06' W 004°20'0 0.0
2017-Sep-15 11:53N 48°06' W 004°20'  

Dump ship's entire track history